Track Державина Анна

Time Latitude Longitude Accuracy (66% radius in meters) Altitude (meters) Speed (km/hour) Bearing (degrees) Battery (%) GPS flag
09:49:40 44.559079 38.197530 8 86.717275723141 0 183.88777160645 70 1 delete
09:49:28 44.559079 38.197530 24 86.428725246934 0.42541587352753 183.88777160645 70 1 delete
09:49:16 44.559087 38.197527 12 85.502303756178 0 183.88777160645 70 1 delete
09:49:04 44.559087 38.197527 8 85.342790832851 0 183.88777160645 70 1 delete
09:48:52 44.559087 38.197527 12 85.558308655541 0 183.88777160645 70 1 delete
09:48:40 44.559087 38.197527 12 86.12174131782 0 183.88777160645 70 1 delete
09:48:28 44.559087 38.197527 24 85.979298079521 0 183.88777160645 70 1 delete
09:48:13 44.559111 38.197530 8 85.440188602879 1.2605389356613 194.1244354248 70 1 delete
09:48:10 44.559170 38.197544 12 85.426833318621 1.3565293550491 203.07888793945 70 1 delete
09:48:07 44.559263 38.197591 12 85.180289319783 1.3161628246307 215.18360900879 70 1 delete
09:48:04 44.559343 38.197647 12 85.13631288765 1.228707909584 216.38027954102 70 1 delete
09:48:01 44.559388 38.197686 16 85.074427133247 1.4066489934921 206.97155761719 70 1 delete
09:47:58 44.559468 38.197715 12 85.141481912865 1.5285042524338 172.91856384277 70 1 delete
09:47:55 44.559529 38.197730 12 85.075952654765 1.6885677576065 179.44288635254 70 1 delete
09:47:49 44.559611 38.197752 12 85.18827630484 2.0191841125488 198.9775390625 70 1 delete
09:47:46 44.559683 38.197771 12 85.463569008325 1.9057264328003 171.73928833008 70 1 delete
09:47:43 44.559747 38.197789 8 85.590211927655 1.8577731847763 200.76025390625 70 1 delete
09:47:40 44.559832 38.197821 8 85.598902199489 1.6716216802597 207.67472839355 70 1 delete
09:47:37 44.559897 38.197871 12 85.56411816558 1.5938121080399 222.87194824219 70 1 delete
09:47:34 44.559958 38.197914 8 85.754266091236 1.4620327949524 211.2491607666 70 1 delete
09:47:31 44.560053 38.197965 12 85.796052439683 1.428283572197 228.84405517578 70 1 delete
09:47:28 44.560160 38.198058 16 86.144369139556 1.3382347822189 243.58183288574 70 1 delete
09:47:25 44.560204 38.198119 12 86.905863501862 1.2610214948654 2.377256155014 70 1 delete
09:47:19 44.560313 38.198216 12 87.798870945596 0.32935494184494 221.92889404297 70 1 delete
09:47:16 44.560371 38.198235 16 88.318495184527 0.77809953689575 194.50053405762 70 1 delete
09:47:13 44.560421 38.198280 12 88.742072847513 0.93797785043716 98.304725646973 70 1 delete
09:47:10 44.560493 38.198306 12 89.1730474945 0.87537163496017 187.88395690918 70 1 delete
09:47:04 44.560602 38.198339 12 90.270902061642 1.3728532791138 148.32371520996 70 1 delete
09:47:01 44.560672 38.198321 12 90.889269893083 1.3887659311295 192.27018737793 70 1 delete
09:46:55 44.560776 38.198301 12 91.590921248799 1.5724555253983 165.60342407227 70 1 delete
09:46:52 44.560852 38.198286 12 92.027211151306 1.5193314552307 183.05284118652 70 1 delete
09:46:49 44.560945 38.198279 12 92.608685766996 1.325234413147 147.76136779785 70 1 delete
09:46:43 44.561050 38.198205 16 94.078767582126 1.3996298313141 178.67083740234 70 1 delete
09:46:40 44.561125 38.198196 16 94.422909775714 0 113.26783752441 70 1 delete
09:46:37 44.561180 38.198179 12 94.508453768808 1.9256908893585 169.62886047363 70 1 delete
09:46:34 44.561275 38.198148 12 94.538509735961 1.3618068695068 129.81469726562 70 1 delete
09:46:28 44.561316 38.198110 12 94.860738760968 1.216023683548 159.27871704102 70 1 delete
09:46:22 44.561383 38.198109 12 95.372547396935 1.0219061374664 183.61068725586 70 1 delete
09:46:16 44.561446 38.198142 12 96.121195333666 0.93346190452576 350.85748291016 70 1 delete
09:46:04 44.561519 38.198180 8 97.237272895718 1.5395926237106 140.37937927246 70 1 delete
09:45:58 44.561616 38.198175 12 96.958520257138 1.3570988178253 148.33538818359 70 1 delete
09:45:55 44.561661 38.198157 8 96.649072684457 1.676398396492 168.65794372559 70 1 delete
09:45:52 44.561794 38.198213 8 96.57519244235 1.3324345350266 245.69570922852 70 1 delete
09:45:49 44.561847 38.198287 8 96.553141813035 1.2979601621628 240.25483703613 70 1 delete
09:45:46 44.561924 38.198375 16 96.747428241358 1.225612282753 259.71557617188 70 1 delete
09:45:43 44.561983 38.198457 8 96.846141125761 1.0907579660416 244.73782348633 70 1 delete
09:45:40 44.562008 38.198509 16 96.640021322482 0.75590121746063 292.17202758789 70 1 delete
09:45:37 44.562058 38.198528 8 96.200369602892 1.2031990289688 164.27499389648 70 1 delete
09:45:34 44.562162 38.198577 8 95.796804506761 0.92667007446289 267.92236328125 70 1 delete
09:45:31 44.562232 38.198643 8 95.56470951799 0.61844348907471 171.30206298828 70 1 delete